createdAt,value
2022-10-02T06:32:53.308Z,13.37
2022-10-02T06:35:47.178Z,13.43
2022-10-02T06:38:32.446Z,13.51
2022-10-02T06:41:20.582Z,13.62
2022-10-02T06:44:08.953Z,13.65
2022-10-02T06:46:57.049Z,13.78
2022-10-02T06:49:51.427Z,13.81
2022-10-02T06:52:26.989Z,13.86
2022-10-02T06:55:20.135Z,13.86
2022-10-02T06:58:14.763Z,13.89
2022-10-02T07:00:52.342Z,13.94
2022-10-02T07:04:04.883Z,13.99
2022-10-02T07:06:50.909Z,14.15
2022-10-02T07:09:37.079Z,14.37
2022-10-02T07:12:22.273Z,14.43
2022-10-02T07:15:14.211Z,14.61
2022-10-02T07:17:52.608Z,14.89
2022-10-02T07:20:31.089Z,15.18
2022-10-02T07:23:16.376Z,15.54
2022-10-02T07:25:58.275Z,15.64
2022-10-02T07:28:44.229Z,15.46
2022-10-02T07:31:23.139Z,15.28
2022-10-02T07:34:05.825Z,15.31
2022-10-02T07:36:50.854Z,15.25
2022-10-02T07:39:39.117Z,15.23
2022-10-02T07:42:26.702Z,15.18
2022-10-02T07:45:02.361Z,15.11
2022-10-02T07:47:53.418Z,15.16
2022-10-02T07:50:35.043Z,15.28
2022-10-02T07:53:20.104Z,15.42
2022-10-02T07:55:53.138Z,15.35
2022-10-02T07:58:37.165Z,15.29
2022-10-02T08:01:11.580Z,15.42
2022-10-02T08:03:55.280Z,15.50
2022-10-02T08:06:21.914Z,15.70
2022-10-02T08:08:56.638Z,15.84
2022-10-02T08:11:35.220Z,15.96
2022-10-02T08:14:06.547Z,15.91
2022-10-02T08:16:47.279Z,15.97
2022-10-02T08:19:36.877Z,15.98
2022-10-02T08:22:10.172Z,16.01
2022-10-02T08:24:41.045Z,15.97
2022-10-02T08:27:17.545Z,16.25
2022-10-02T08:30:06.818Z,16.44
2022-10-02T08:32:36.272Z,16.53
2022-10-02T08:35:16.260Z,16.53
2022-10-02T08:37:55.891Z,16.66
2022-10-02T08:40:48.082Z,16.84
2022-10-02T08:43:40.046Z,16.97
2022-10-02T08:46:25.336Z,17.04
2022-10-02T08:48:55.403Z,17.06
2022-10-02T08:51:39.909Z,17.27
2022-10-02T08:54:16.125Z,17.66
2022-10-02T08:56:59.552Z,18.36
2022-10-02T08:59:58.798Z,19.45
2022-10-02T09:03:04.507Z,20.77
2022-10-02T09:06:09.323Z,21.38
2022-10-02T09:09:23.304Z,20.87
2022-10-02T09:12:01.966Z,21.14
2022-10-02T09:14:29.019Z,21.14
2022-10-02T09:17:30.817Z,20.73
2022-10-02T09:20:15.742Z,20.80
2022-10-02T09:23:00.446Z,20.52
2022-10-02T09:25:59.326Z,20.24
2022-10-02T09:28:57.016Z,20.29
2022-10-02T09:32:03.823Z,20.22
2022-10-02T09:34:52.138Z,20.09
2022-10-02T09:37:51.113Z,19.56
2022-10-02T09:40:51.736Z,19.70
2022-10-02T09:43:47.561Z,20.37
2022-10-02T09:46:44.348Z,21.78
2022-10-02T09:49:44.952Z,22.17
2022-10-02T09:52:42.992Z,22.82
2022-10-02T09:55:50.101Z,23.10
2022-10-02T09:58:31.571Z,23.07
2022-10-02T10:01:40.759Z,22.85
2022-10-02T10:04:12.778Z,24.39
2022-10-02T10:06:57.388Z,25.55
2022-10-02T10:09:40.523Z,23.65
2022-10-02T10:12:18.908Z,22.20
2022-10-02T10:14:57.927Z,20.90
2022-10-02T10:17:30.838Z,20.22
2022-10-02T10:20:16.333Z,19.51
2022-10-02T10:23:02.287Z,18.65
2022-10-02T10:25:51.352Z,18.52
2022-10-02T10:28:39.902Z,18.17
2022-10-02T10:31:37.851Z,18.10
2022-10-02T10:34:18.169Z,18.09
2022-10-02T10:37:14.468Z,18.96
2022-10-02T10:40:05.628Z,20.14
2022-10-02T10:43:10.881Z,20.91
2022-10-02T10:46:10.958Z,21.14
2022-10-02T10:48:59.871Z,20.40
2022-10-02T10:51:45.739Z,19.78
2022-10-02T10:54:27.129Z,20.12
2022-10-02T10:56:59.562Z,19.60
2022-10-02T11:00:10.603Z,19.45
2022-10-02T11:02:37.688Z,19.63
2022-10-02T11:05:49.071Z,19.51
2022-10-02T11:08:34.380Z,19.56
2022-10-02T11:11:03.595Z,19.95
2022-10-02T11:13:56.134Z,20.97
2022-10-02T11:16:31.722Z,21.17
2022-10-02T11:19:07.108Z,21.32
2022-10-02T11:21:59.208Z,21.35
2022-10-02T11:25:01.960Z,20.15
2022-10-02T11:28:03.125Z,20.45
2022-10-02T18:07:29.213Z,13.69
2022-10-02T18:10:04.149Z,13.78
2022-10-02T18:12:43.479Z,13.85
2022-10-02T18:15:43.285Z,13.86
2022-10-02T18:18:24.266Z,13.81
2022-10-02T18:21:11.705Z,13.75
2022-10-02T18:23:44.593Z,13.76
2022-10-02T18:26:19.945Z,13.74
2022-10-02T18:29:15.162Z,13.68
2022-10-02T18:32:06.999Z,13.68
2022-10-02T18:34:55.681Z,13.72
2022-10-02T18:37:41.932Z,13.71
2022-10-02T18:40:25.680Z,13.64
2022-10-02T18:43:27.043Z,13.64
2022-10-02T18:46:15.145Z,13.65
2022-10-02T18:49:09.331Z,13.59
2022-10-02T18:51:54.748Z,13.53
2022-10-02T18:54:30.040Z,13.51
2022-10-02T18:57:11.244Z,13.44
2022-10-02T19:00:02.464Z,13.44
2022-10-02T19:02:47.556Z,13.33
2022-10-02T19:05:35.385Z,13.24
2022-10-02T19:08:05.115Z,13.19
2022-10-02T19:10:46.897Z,13.14
2022-10-02T19:13:28.920Z,13.09
2022-10-02T19:16:01.236Z,13.09
2022-10-02T19:18:30.157Z,13.11
2022-10-02T19:21:12.285Z,13.04
2022-10-02T19:23:40.868Z,13.04
2022-10-02T19:26:20.393Z,13.09
2022-10-02T19:29:04.342Z,13.00
2022-10-02T19:31:36.400Z,12.96
2022-10-02T19:34:13.372Z,12.82
2022-10-02T19:36:54.395Z,12.85
2022-10-02T19:39:26.924Z,12.90
2022-10-02T19:41:56.383Z,12.92
2022-10-02T19:44:38.294Z,12.88
2022-10-02T19:47:15.868Z,12.78
2022-10-02T19:49:46.636Z,12.68
2022-10-02T19:52:46.778Z,12.75
2022-10-02T19:55:27.173Z,12.73
2022-10-02T19:57:59.472Z,12.69
2022-10-02T20:00:26.656Z,12.72
2022-10-02T20:02:57.096Z,12.69
2022-10-02T20:05:28.212Z,12.68
2022-10-02T20:08:05.762Z,12.68
2022-10-02T20:10:43.746Z,12.63
2022-10-02T20:13:16.883Z,12.63
2022-10-02T20:16:12.627Z,12.55
2022-10-02T20:18:39.550Z,12.46
2022-10-02T20:21:18.763Z,12.49
2022-10-02T20:23:51.549Z,12.44
2022-10-02T20:26:23.423Z,12.45
2022-10-02T20:29:18.697Z,12.52
2022-10-02T20:32:21.287Z,12.52
2022-10-02T20:34:53.658Z,12.53
2022-10-02T20:37:29.374Z,12.51
2022-10-02T20:40:03.459Z,12.65
2022-10-02T20:42:36.051Z,12.62
2022-10-02T20:45:02.924Z,12.66
2022-10-02T20:47:44.663Z,12.59
2022-10-02T20:50:45.079Z,12.56
2022-10-02T20:53:45.526Z,12.48
2022-10-02T20:56:30.134Z,12.58
2022-10-02T20:59:15.166Z,12.56
2022-10-02T21:02:07.921Z,12.51
2022-10-02T21:04:58.800Z,12.46
2022-10-02T21:07:42.880Z,12.48
2022-10-02T21:10:29.445Z,12.49
2022-10-02T21:13:24.265Z,12.42
2022-10-02T21:16:33.037Z,12.49
2022-10-02T21:19:24.370Z,12.40
2022-10-02T21:22:06.301Z,12.32
2022-10-02T21:24:35.869Z,12.41
2022-10-02T21:27:14.519Z,12.35
2022-10-02T21:30:12.146Z,12.40
2022-10-02T21:32:57.059Z,12.44
2022-10-02T21:35:54.660Z,12.45
2022-10-02T21:38:51.522Z,12.48
2022-10-02T21:41:47.265Z,12.46
2022-10-02T21:44:52.043Z,12.45
2022-10-02T21:47:43.707Z,12.35
2022-10-02T21:50:47.545Z,12.40
2022-10-02T21:53:32.782Z,12.32
